Terminal Aerodrome Forecast
Issued by NWS

Home | Current Version | Previous Version | Text Only | Print | Product List | Glossary On
Versions: 1 2 3 4 5 6 7 8 9 10 11 12 13 14 15 16 17 18 19
000
FTUS44 KLZK 231120
TAFPBF
TAF
KPBF 231120Z 2312/2412 17003KT 1SM BR SKC
      TEMPO 2312/2314 1/4SM FG VV002
     FM231600 17008KT P6SM FEW250
     FM231800 17012G18KT P6SM FEW250
     FM240600 19010G16KT P6SM SCT040 WS020/20045KT=

USA.gov is the U.S. government's official web portal to all federal, state and local government web resources and services.